createdAt,value
2019-04-28T00:00:25.579Z,80.50
2019-04-28T00:02:56.059Z,80.30
2019-04-28T00:05:26.591Z,80.60
2019-04-28T00:07:56.985Z,80.20
2019-04-28T00:10:27.560Z,80.40
2019-04-28T00:12:57.947Z,80.70
2019-04-28T00:15:28.302Z,80.50
2019-04-28T00:17:58.715Z,81.20
2019-04-28T00:20:45.967Z,80.40
2019-04-28T00:23:17.936Z,80.40
2019-04-28T00:26:07.942Z,81.40
2019-04-28T00:28:38.306Z,80.80
2019-04-28T00:31:08.794Z,80.30
2019-04-28T00:33:43.563Z,80.60
2019-04-28T00:36:13.090Z,80.20
2019-04-28T00:38:43.529Z,79.90
2019-04-28T00:41:13.934Z,81.20
2019-04-28T00:43:47.241Z,80.00
2019-04-28T00:46:20.759Z,80.60
2019-04-28T00:48:51.155Z,80.50
2019-04-28T00:51:21.505Z,80.50
2019-04-28T00:53:51.870Z,81.80
2019-04-28T00:56:22.351Z,80.90
2019-04-28T00:58:53.184Z,80.40
2019-04-28T01:01:44.562Z,80.40
2019-04-28T01:04:17.976Z,80.60
2019-04-28T01:06:48.361Z,80.40
2019-04-28T01:09:19.231Z,80.10
2019-04-28T01:11:51.087Z,79.80
2019-04-28T01:14:21.872Z,80.20
2019-04-28T01:17:10.082Z,80.40
2019-04-28T01:19:44.910Z,78.30
2019-04-28T01:22:16.831Z,78.20
2019-04-28T01:24:47.223Z,78.00
2019-04-28T01:27:31.235Z,78.30
2019-04-28T01:30:08.644Z,80.40
2019-04-28T01:32:45.906Z,82.60
2019-04-28T01:35:16.289Z,87.70
2019-04-28T01:37:46.675Z,90.50
2019-04-28T01:40:17.066Z,90.90
2019-04-28T01:42:47.493Z,92.00
2019-04-28T01:45:17.924Z,95.70
2019-04-28T01:47:50.246Z,97.70
2019-04-28T01:50:20.532Z,98.60
2019-04-28T01:52:51.522Z,98.60
2019-04-28T01:55:22.253Z,98.60
2019-04-28T01:57:52.647Z,99.10
2019-04-28T02:00:25.591Z,99.00
2019-04-28T02:02:57.972Z,99.40
2019-04-28T02:05:29.502Z,99.40
2019-04-28T02:08:00.302Z,99.90
2019-04-28T02:10:30.814Z,99.80
2019-04-28T02:13:01.419Z,99.10
2019-04-28T02:15:31.839Z,98.50
2019-04-28T02:18:02.322Z,98.50
2019-04-28T02:20:32.786Z,98.20
2019-04-28T02:23:04.752Z,98.20
2019-04-28T02:25:35.159Z,97.50
2019-04-28T02:28:05.536Z,96.90
2019-04-28T02:30:45.398Z,96.00
2019-04-28T02:33:07.843Z,95.90
2019-04-28T02:35:38.258Z,95.60
2019-04-28T02:38:11.370Z,95.30
2019-04-28T02:40:40.811Z,95.20
2019-04-28T02:43:11.556Z,95.30
2019-04-28T02:45:42.549Z,95.20
2019-04-28T02:48:14.506Z,95.60
2019-04-28T02:50:46.495Z,95.60
2019-04-28T02:53:20.882Z,96.20
2019-04-28T02:55:51.380Z,95.80
2019-04-28T02:58:22.630Z,95.80
2019-04-28T03:01:08.975Z,95.30
2019-04-28T03:03:25.340Z,94.70
2019-04-28T03:05:55.684Z,93.70
2019-04-28T03:08:26.009Z,93.00
2019-04-28T03:10:56.464Z,92.20
2019-04-28T03:13:27.066Z,91.90
2019-04-28T03:15:57.363Z,91.60
2019-04-28T03:18:27.720Z,91.00
2019-04-28T03:20:58.160Z,91.00
2019-04-28T03:23:31.061Z,90.60
2019-04-28T03:26:02.187Z,90.50
2019-04-28T03:28:52.175Z,90.40
2019-04-28T03:32:01.584Z,89.30
2019-04-28T03:34:12.567Z,88.10
2019-04-28T03:36:41.002Z,87.10
2019-04-28T03:39:11.635Z,86.50
2019-04-28T03:41:42.122Z,84.60
2019-04-28T03:44:12.513Z,83.00
2019-04-28T03:46:44.489Z,81.50
2019-04-28T03:49:16.845Z,80.60
2019-04-28T03:51:47.231Z,79.40
2019-04-28T03:54:17.589Z,77.80
2019-04-28T03:56:50.160Z,76.40
2019-04-28T03:59:21.241Z,76.10
2019-04-28T04:01:59.245Z,74.50
2019-04-28T04:04:25.071Z,75.10
2019-04-28T04:07:06.211Z,73.50
2019-04-28T04:10:05.399Z,73.10
2019-04-28T04:12:37.413Z,71.20
2019-04-28T04:15:41.516Z,72.20
2019-04-28T04:18:13.637Z,71.90
2019-04-28T04:20:44.034Z,70.80
2019-04-28T04:23:14.423Z,70.50
2019-04-28T04:26:23.329Z,71.00
2019-04-28T04:28:53.724Z,70.40
2019-04-28T04:31:24.221Z,70.60
2019-04-28T04:34:02.846Z,70.10
2019-04-28T04:36:31.539Z,67.80
2019-04-28T04:39:06.942Z,67.10
2019-04-28T04:41:40.871Z,64.40
2019-04-28T04:44:20.866Z,66.60
2019-04-28T04:46:50.981Z,63.10
2019-04-28T04:49:21.829Z,60.80
2019-04-28T04:51:55.021Z,60.50
2019-04-28T04:54:25.504Z,58.60
2019-04-28T04:56:59.896Z,56.30
2019-04-28T04:59:31.578Z,56.20
2019-04-28T05:02:11.337Z,54.80
2019-04-28T05:04:43.338Z,55.50
2019-04-28T05:07:15.929Z,56.00
2019-04-28T05:09:49.569Z,57.50
2019-04-28T05:12:20.443Z,58.50
2019-04-28T05:14:51.202Z,59.20
2019-04-28T05:17:23.212Z,60.60
2019-04-28T05:19:53.601Z,60.40
2019-04-28T05:22:25.587Z,61.20
2019-04-28T05:24:57.520Z,61.10
2019-04-28T05:27:27.999Z,62.40
2019-04-28T05:30:02.537Z,61.70
2019-04-28T05:32:42.567Z,62.90
2019-04-28T05:35:06.276Z,63.90
2019-04-28T05:37:40.442Z,62.90
2019-04-28T05:40:10.771Z,61.70
2019-04-28T05:42:44.435Z,62.20
2019-04-28T05:45:16.093Z,64.60
2019-04-28T05:47:50.186Z,63.90
2019-04-28T05:50:23.089Z,62.90
2019-04-28T05:52:55.232Z,65.90
2019-04-28T05:55:42.248Z,65.20
2019-04-28T05:58:31.947Z,68.20
2019-04-28T06:01:13.045Z,66.60
2019-04-28T06:03:49.665Z,69.20
2019-04-28T06:06:24.290Z,70.20
2019-04-28T06:08:59.829Z,71.10
2019-04-28T06:11:34.522Z,71.80
2019-04-28T06:14:05.177Z,74.50
2019-04-28T06:16:35.659Z,74.10
2019-04-28T06:19:06.305Z,73.80
2019-04-28T06:21:36.727Z,75.60
2019-04-28T06:24:07.221Z,76.00
2019-04-28T06:26:37.806Z,75.70
2019-04-28T06:29:08.281Z,75.80
2019-04-28T06:31:38.644Z,74.40
2019-04-28T06:34:09.201Z,79.00
2019-04-28T06:36:39.573Z,80.10
2019-04-28T06:39:10.276Z,78.00
2019-04-28T06:41:45.079Z,76.50
2019-04-28T06:44:15.492Z,76.80
2019-04-28T06:46:47.478Z,81.90
2019-04-28T06:49:17.954Z,78.00
2019-04-28T06:51:48.248Z,80.30
2019-04-28T06:54:18.660Z,78.20
2019-04-28T06:56:49.092Z,79.40
2019-04-28T06:59:19.481Z,80.50
2019-04-28T07:01:49.820Z,85.80
2019-04-28T07:04:20.241Z,86.90
2019-04-28T07:06:50.620Z,89.20
2019-04-28T07:09:21.194Z,90.00
2019-04-28T07:11:51.682Z,90.60
2019-04-28T07:14:22.012Z,91.50
2019-04-28T07:16:52.435Z,92.50
2019-04-28T07:19:23.091Z,94.20
2019-04-28T07:21:55.343Z,94.40
2019-04-28T07:24:28.885Z,94.90
2019-04-28T07:26:59.578Z,96.10
2019-04-28T07:29:30.053Z,95.30
2019-04-28T07:32:00.535Z,95.80
2019-04-28T07:34:30.977Z,94.20
2019-04-28T07:37:01.798Z,94.80
2019-04-28T07:39:32.418Z,93.00
2019-04-28T07:42:05.837Z,93.00
2019-04-28T07:44:37.426Z,92.10
2019-04-28T07:47:09.773Z,91.60
2019-04-28T07:49:46.546Z,89.20
2019-04-28T07:52:27.868Z,90.00
2019-04-28T07:54:58.314Z,88.60
2019-04-28T07:57:28.792Z,85.70
2019-04-28T07:59:59.230Z,86.00
2019-04-28T08:02:29.623Z,86.70
2019-04-28T08:05:00.263Z,84.60
2019-04-28T08:07:30.711Z,83.30
2019-04-28T08:10:01.107Z,71.60
2019-04-28T08:12:31.543Z,68.80
2019-04-28T08:15:01.948Z,68.60
2019-04-28T08:17:32.498Z,64.80
2019-04-28T08:20:05.593Z,63.40
2019-04-28T08:22:35.239Z,61.40
2019-04-28T08:25:08.874Z,61.00
2019-04-28T08:27:41.047Z,59.60
2019-04-28T08:30:11.494Z,57.50
2019-04-28T08:32:43.512Z,57.50
2019-04-28T08:35:14.049Z,54.10
2019-04-28T08:37:44.486Z,53.80
2019-04-28T08:40:15.097Z,52.20
2019-04-28T08:42:47.645Z,52.00
2019-04-28T08:45:17.738Z,49.40
2019-04-28T08:47:48.280Z,49.70
2019-04-28T08:50:18.782Z,49.90
2019-04-28T08:52:49.198Z,50.50
2019-04-28T08:55:19.619Z,51.00
2019-04-28T08:57:50.045Z,47.70
2019-04-28T09:00:21.113Z,47.30
2019-04-28T09:02:51.579Z,47.20
2019-04-28T09:05:22.021Z,46.70
2019-04-28T09:07:52.560Z,46.60
2019-04-28T09:10:22.931Z,45.40
2019-04-28T09:12:56.326Z,44.40
2019-04-28T09:15:26.807Z,45.60
2019-04-28T09:17:57.135Z,45.60
2019-04-28T09:20:27.620Z,44.80
2019-04-28T09:22:58.026Z,43.70
2019-04-28T09:25:30.020Z,43.60
2019-04-28T09:28:00.502Z,43.70
2019-04-28T09:30:30.944Z,43.10
2019-04-28T09:33:01.304Z,44.50
2019-04-28T09:35:31.773Z,45.90
2019-04-28T09:38:03.781Z,44.20
2019-04-28T09:40:34.171Z,43.90
2019-04-28T09:43:06.199Z,42.30
2019-04-28T09:45:38.184Z,43.00
2019-04-28T09:48:08.560Z,41.90
2019-04-28T09:50:38.958Z,42.60
2019-04-28T09:53:09.333Z,43.00
2019-04-28T09:55:39.713Z,41.80
2019-04-28T09:58:10.275Z,42.90
2019-04-28T10:00:42.520Z,43.20
2019-04-28T10:03:13.019Z,41.60
2019-04-28T10:05:50.143Z,42.40
2019-04-28T10:08:20.566Z,43.00
2019-04-28T10:10:50.875Z,42.90
2019-04-28T10:13:21.302Z,41.20
2019-04-28T10:15:51.733Z,40.40
2019-04-28T10:18:22.117Z,40.90
2019-04-28T10:20:52.580Z,41.10
2019-04-28T10:23:22.948Z,41.10
2019-04-28T10:25:53.351Z,41.10
2019-04-28T10:28:23.886Z,41.00
2019-04-28T10:30:55.504Z,40.90
2019-04-28T10:33:28.850Z,40.60
2019-04-28T10:35:59.346Z,40.10
2019-04-28T10:38:29.753Z,41.60
2019-04-28T10:41:17.932Z,41.00
2019-04-28T10:43:48.327Z,41.50
2019-04-28T10:46:18.764Z,41.00
2019-04-28T10:48:49.227Z,41.30
2019-04-28T10:51:19.764Z,40.50
2019-04-28T10:53:50.436Z,41.30
2019-04-28T10:56:21.081Z,43.00
2019-04-28T10:59:17.687Z,42.00
2019-04-28T11:01:48.792Z,42.10
2019-04-28T11:04:39.329Z,44.90
2019-04-28T11:07:11.586Z,41.60
2019-04-28T11:09:49.715Z,39.70
2019-04-28T11:12:27.911Z,40.00
2019-04-28T11:15:23.116Z,39.10
2019-04-28T11:18:40.164Z,38.70
2019-04-28T11:21:23.039Z,38.30
2019-04-28T11:23:55.533Z,39.50
2019-04-28T11:26:28.126Z,37.00
2019-04-28T11:29:00.259Z,37.30
2019-04-28T11:31:30.861Z,36.90
2019-04-28T11:34:08.520Z,38.00
2019-04-28T11:36:39.496Z,37.90
2019-04-28T11:39:11.545Z,38.80
2019-04-28T11:41:43.518Z,37.90
2019-04-28T11:44:14.011Z,38.50
2019-04-28T11:46:44.415Z,37.50
2019-04-28T11:49:14.821Z,37.30
2019-04-28T11:51:45.239Z,38.40
2019-04-28T11:54:15.750Z,37.80
2019-04-28T11:56:46.255Z,37.20
2019-04-28T11:59:16.742Z,37.30
2019-04-28T12:01:47.119Z,37.30
2019-04-28T12:04:18.412Z,37.20
2019-04-28T12:06:48.900Z,36.90
2019-04-28T12:09:26.906Z,38.50
2019-04-28T12:12:05.000Z,37.10
2019-04-28T12:14:37.056Z,36.60
2019-04-28T12:17:09.067Z,37.80
2019-04-28T12:19:49.956Z,36.60
2019-04-28T12:22:21.247Z,37.10
2019-04-28T12:24:53.784Z,37.00
2019-04-28T12:27:24.285Z,36.30
2019-04-28T12:29:54.667Z,36.00
2019-04-28T12:32:25.220Z,36.40
2019-04-28T12:34:55.582Z,36.60
2019-04-28T12:37:26.023Z,37.10
2019-04-28T12:39:58.577Z,37.40
2019-04-28T12:42:31.615Z,37.40
2019-04-28T12:45:05.026Z,37.10
2019-04-28T12:47:37.165Z,37.50
2019-04-28T12:50:12.110Z,37.30
2019-04-28T12:52:42.543Z,37.50
2019-04-28T12:55:16.479Z,36.90
2019-04-28T12:57:46.996Z,38.20
2019-04-28T13:00:22.390Z,38.10
2019-04-28T13:03:10.993Z,42.60
2019-04-28T13:05:43.136Z,47.10
2019-04-28T13:08:18.019Z,49.60
2019-04-28T13:10:48.605Z,51.40
2019-04-28T13:13:21.188Z,55.30
2019-04-28T13:15:51.655Z,57.90
2019-04-28T13:18:22.314Z,58.70
2019-04-28T13:20:59.091Z,59.10
2019-04-28T13:23:30.231Z,59.40
2019-04-28T13:26:02.294Z,59.90
2019-04-28T13:28:32.727Z,59.90
2019-04-28T13:31:04.874Z,60.70
2019-04-28T13:33:55.405Z,61.20
2019-04-28T13:36:15.401Z,61.60
2019-04-28T13:38:46.038Z,62.00
2019-04-28T13:41:16.395Z,62.30
2019-04-28T13:43:52.893Z,63.40
2019-04-28T13:46:23.305Z,62.90
2019-04-28T13:48:56.741Z,64.10
2019-04-28T13:51:27.177Z,64.70
2019-04-28T13:53:57.746Z,64.60
2019-04-28T13:56:28.652Z,64.70
2019-04-28T13:59:00.732Z,65.50
2019-04-28T14:01:41.765Z,65.70
2019-04-28T14:04:16.901Z,65.00
2019-04-28T14:06:48.990Z,65.70
2019-04-28T14:09:19.500Z,65.60
2019-04-28T14:11:51.599Z,65.70
2019-04-28T14:14:25.098Z,65.20
2019-04-28T14:16:55.549Z,64.90
2019-04-28T14:19:25.961Z,65.20
2019-04-28T14:22:01.000Z,64.90
2019-04-28T14:24:34.518Z,64.80
2019-04-28T14:27:06.965Z,64.40
2019-04-28T14:29:37.460Z,66.00
2019-04-28T14:32:07.905Z,65.60
2019-04-28T14:34:38.556Z,65.40
2019-04-28T14:37:11.762Z,64.80
2019-04-28T14:39:42.190Z,64.80
2019-04-28T14:42:12.642Z,64.70
2019-04-28T14:44:43.219Z,65.00
2019-04-28T14:47:13.751Z,65.60
2019-04-28T14:49:44.260Z,65.60
2019-04-28T14:52:14.645Z,65.40
2019-04-28T14:54:45.230Z,65.90
2019-04-28T14:57:52.882Z,65.80
2019-04-28T15:00:35.247Z,65.60
2019-04-28T15:03:16.537Z,65.30
2019-04-28T15:06:09.189Z,64.00
2019-04-28T15:08:54.551Z,63.20
2019-04-28T15:11:26.631Z,63.90
2019-04-28T15:13:57.080Z,64.90
2019-04-28T15:16:27.619Z,63.70
2019-04-28T15:18:59.260Z,63.30
2019-04-28T15:21:35.933Z,63.30
2019-04-28T15:24:07.040Z,64.10
2019-04-28T15:27:02.797Z,63.70
2019-04-28T15:29:33.172Z,64.60
2019-04-28T15:32:03.710Z,65.60
2019-04-28T15:34:36.204Z,65.10
2019-04-28T15:37:09.842Z,65.00
2019-04-28T15:39:40.241Z,67.00
2019-04-28T15:42:13.640Z,67.40
2019-04-28T15:44:44.152Z,67.80
2019-04-28T15:47:16.199Z,68.10
2019-04-28T15:49:48.207Z,67.40
2019-04-28T15:52:21.881Z,67.00
2019-04-28T15:54:52.260Z,66.40
2019-04-28T15:57:27.939Z,66.60
2019-04-28T15:59:58.407Z,66.30
2019-04-28T16:02:28.923Z,67.20
2019-04-28T16:04:59.320Z,67.20
2019-04-28T16:07:29.902Z,67.40
2019-04-28T16:10:06.368Z,66.80
2019-04-28T16:12:38.553Z,66.70
2019-04-28T16:15:10.848Z,67.10
2019-04-28T16:17:42.974Z,67.40
2019-04-28T16:20:13.433Z,67.50
2019-04-28T16:22:44.029Z,67.50
2019-04-28T16:25:14.483Z,67.70
2019-04-28T16:27:45.381Z,68.90
2019-04-28T16:30:19.075Z,69.20
2019-04-28T16:32:49.557Z,69.10
2019-04-28T16:35:19.998Z,69.70
2019-04-28T16:37:50.468Z,70.30
2019-04-28T16:40:23.896Z,71.50
2019-04-28T16:43:02.595Z,72.90
2019-04-28T16:45:36.869Z,74.30
2019-04-28T16:48:07.340Z,76.10
2019-04-28T16:50:37.731Z,78.50
2019-04-28T16:53:08.161Z,79.60
2019-04-28T16:55:45.811Z,80.50
2019-04-28T16:58:20.899Z,82.40
2019-04-28T17:01:00.030Z,83.40
2019-04-28T17:03:32.044Z,85.40
2019-04-28T17:06:02.447Z,85.90
2019-04-28T17:08:36.497Z,87.20
2019-04-28T17:11:11.238Z,89.10
2019-04-28T17:13:44.974Z,90.20
2019-04-28T17:16:18.308Z,90.90
2019-04-28T17:18:48.843Z,91.80
2019-04-28T17:21:36.143Z,92.20
2019-04-28T17:24:12.070Z,92.40
2019-04-28T17:30:11.787Z,93.10
2019-04-28T17:32:40.543Z,93.60
2019-04-28T17:35:14.783Z,92.90
2019-04-28T17:37:45.118Z,90.40
2019-04-28T17:40:16.315Z,90.90
2019-04-28T17:42:46.757Z,89.20
2019-04-28T17:45:20.156Z,89.60
2019-04-28T17:47:54.999Z,90.50
2019-04-28T17:50:27.203Z,90.60
2019-04-28T17:52:57.565Z,89.40
2019-04-28T17:55:27.901Z,90.00
2019-04-28T17:57:58.478Z,90.50
2019-04-28T18:00:49.646Z,90.20
2019-04-28T18:03:27.398Z,89.50
2019-04-28T18:06:17.181Z,89.30
2019-04-28T18:08:39.103Z,90.10
2019-04-28T18:11:51.881Z,89.60
2019-04-28T18:18:02.726Z,88.40
2019-04-28T18:20:53.719Z,88.20
2019-04-28T18:23:24.238Z,87.50
2019-04-28T18:25:57.453Z,87.60
2019-04-28T18:28:31.201Z,88.00
2019-04-28T18:31:21.059Z,87.80
2019-04-28T18:34:35.401Z,87.10
2019-04-28T18:37:12.900Z,87.90
2019-04-28T18:43:05.648Z,88.80
2019-04-28T18:45:51.016Z,89.30
2019-04-28T18:48:28.373Z,89.20
2019-04-28T18:50:59.061Z,89.10
2019-04-28T18:53:34.019Z,89.10
2019-04-28T18:56:06.527Z,88.90
2019-04-28T19:02:08.018Z,87.80
2019-04-28T19:08:18.117Z,88.90
2019-04-28T19:10:50.150Z,87.70
2019-04-28T19:13:29.476Z,85.40
2019-04-28T19:16:14.055Z,84.60
2019-04-28T19:18:48.907Z,83.60
2019-04-28T19:21:28.223Z,82.60
2019-04-28T19:27:17.128Z,80.30
2019-04-28T19:29:47.720Z,78.60
2019-04-28T19:32:18.179Z,77.80
2019-04-28T19:34:53.730Z,77.00
2019-04-28T19:37:27.022Z,76.30
2019-04-28T19:40:17.121Z,75.50
2019-04-28T19:46:34.468Z,74.70
2019-04-28T19:47:02.026Z,73.60
2019-04-28T19:49:28.754Z,73.40
2019-04-28T19:52:03.535Z,72.90
2019-04-28T19:54:35.846Z,72.50
2019-04-28T19:57:11.126Z,72.40
2019-04-28T19:59:59.305Z,72.50
2019-04-28T20:02:31.367Z,72.10
2019-04-28T20:05:01.774Z,72.00
2019-04-28T20:07:32.309Z,72.20
2019-04-28T20:10:02.763Z,72.40
2019-04-28T20:12:33.178Z,72.40
2019-04-28T20:15:04.591Z,72.30
2019-04-28T20:17:35.487Z,72.60
2019-04-28T20:20:08.254Z,72.40
2019-04-28T20:22:39.595Z,72.70
2019-04-28T20:25:11.135Z,72.80
2019-04-28T20:27:41.635Z,72.70
2019-04-28T20:30:12.761Z,72.60
2019-04-28T20:32:47.235Z,72.40
2019-04-28T20:35:22.367Z,72.10
2019-04-28T20:37:54.383Z,71.30
2019-04-28T20:40:29.169Z,71.40
2019-04-28T20:43:02.113Z,71.00
2019-04-28T20:45:32.914Z,71.10
2019-04-28T20:48:03.380Z,71.00
2019-04-28T20:50:33.828Z,71.10
2019-04-28T20:53:04.294Z,71.30
2019-04-28T20:55:34.851Z,71.20
2019-04-28T20:58:05.322Z,71.20
2019-04-28T21:00:35.725Z,71.70
2019-04-28T21:03:06.250Z,71.50
2019-04-28T21:05:36.717Z,71.30
2019-04-28T21:08:07.102Z,71.60
2019-04-28T21:10:38.634Z,71.50
2019-04-28T21:13:09.143Z,71.40
2019-04-28T21:15:39.632Z,71.40
2019-04-28T21:18:09.978Z,71.30
2019-04-28T21:20:40.419Z,71.20
2019-04-28T21:23:10.839Z,71.30
2019-04-28T21:25:41.415Z,71.40
2019-04-28T21:28:11.824Z,71.40
2019-04-28T21:30:44.325Z,71.60
2019-04-28T21:33:14.499Z,71.60
2019-04-28T21:35:45.053Z,72.40
2019-04-28T21:38:15.422Z,71.40
2019-04-28T21:40:45.886Z,71.40
2019-04-28T21:43:19.280Z,71.70
2019-04-28T21:46:02.951Z,71.40
2019-04-28T21:48:43.679Z,71.30
2019-04-28T21:51:16.764Z,71.30
2019-04-28T21:53:47.154Z,71.40
2019-04-28T21:56:17.631Z,71.30
2019-04-28T21:58:48.045Z,71.00
2019-04-28T22:01:21.384Z,71.30
2019-04-28T22:03:51.886Z,71.30
2019-04-28T22:06:22.367Z,71.20
2019-04-28T22:08:52.738Z,71.10
2019-04-28T22:11:23.202Z,71.10
2019-04-28T22:13:53.812Z,70.60
2019-04-28T22:16:24.324Z,70.90
2019-04-28T22:18:54.700Z,72.00
2019-04-28T22:21:25.154Z,71.60
2019-04-28T22:23:57.132Z,70.50
2019-04-28T22:26:44.220Z,70.50
2019-04-28T22:29:15.120Z,70.80
2019-04-28T22:31:47.565Z,71.20
2019-04-28T22:34:17.994Z,70.90
2019-04-28T22:36:48.911Z,71.20
2019-04-28T22:39:19.272Z,71.50
2019-04-28T22:41:49.664Z,71.40
2019-04-28T22:44:20.133Z,71.30
2019-04-28T22:46:50.653Z,72.30
2019-04-28T22:49:20.956Z,72.20
2019-04-28T22:51:51.378Z,72.70
2019-04-28T22:54:32.327Z,73.00
2019-04-28T22:57:04.361Z,72.60
2019-04-28T22:59:39.179Z,72.60
2019-04-28T23:02:17.550Z,73.70
2019-04-28T23:04:49.613Z,74.20
2019-04-28T23:07:20.200Z,72.40
2019-04-28T23:09:50.571Z,72.80
2019-04-28T23:12:21.125Z,72.40
2019-04-28T23:14:51.479Z,72.50
2019-04-28T23:17:22.318Z,73.60
2019-04-28T23:19:52.693Z,73.20
2019-04-28T23:22:24.750Z,73.20
2019-04-28T23:24:55.176Z,74.30
2019-04-28T23:27:25.656Z,74.80
2019-04-28T23:29:56.063Z,76.30
2019-04-28T23:32:26.532Z,77.70
2019-04-28T23:34:56.943Z,77.40
2019-04-28T23:37:27.535Z,77.50
2019-04-28T23:39:57.929Z,79.60
2019-04-28T23:42:29.994Z,78.50
2019-04-28T23:45:00.532Z,78.80
2019-04-28T23:47:31.101Z,78.90
2019-04-28T23:50:01.528Z,79.90
2019-04-28T23:52:33.477Z,79.70
2019-04-28T23:55:08.729Z,80.00
2019-04-28T23:57:39.151Z,80.60
